sensor_id;sensor_type;location;lat;lon;timestamp;P1;durP1;ratioP1;P2;durP2;ratioP2
6093;SDS011;19964;42.060;24.700;2022-11-23T00:01:29;4.03;;;3.73;;
6093;SDS011;19964;42.060;24.700;2022-11-23T00:04:00;4.20;;;3.83;;
6093;SDS011;19964;42.060;24.700;2022-11-23T00:06:29;4.27;;;3.90;;
6093;SDS011;19964;42.060;24.700;2022-11-23T00:08:57;4.10;;;3.70;;
6093;SDS011;19964;42.060;24.700;2022-11-23T00:11:24;5.90;;;3.40;;
6093;SDS011;19964;42.060;24.700;2022-11-23T00:13:52;4.30;;;3.90;;
6093;SDS011;19964;42.060;24.700;2022-11-23T00:16:20;4.23;;;3.93;;
6093;SDS011;19964;42.060;24.700;2022-11-23T00:18:50;4.77;;;4.27;;
6093;SDS011;19964;42.060;24.700;2022-11-23T00:21:19;6.73;;;4.10;;
6093;SDS011;19964;42.060;24.700;2022-11-23T00:23:47;5.03;;;3.93;;
6093;SDS011;19964;42.060;24.700;2022-11-23T00:26:14;4.87;;;3.80;;
6093;SDS011;19964;42.060;24.700;2022-11-23T00:28:42;6.10;;;4.10;;
6093;SDS011;19964;42.060;24.700;2022-11-23T00:31:10;4.33;;;3.93;;
6093;SDS011;19964;42.060;24.700;2022-11-23T00:33:38;4.63;;;4.20;;
6093;SDS011;19964;42.060;24.700;2022-11-23T00:36:07;6.77;;;5.00;;
6093;SDS011;19964;42.060;24.700;2022-11-23T00:38:38;5.20;;;4.40;;
6093;SDS011;19964;42.060;24.700;2022-11-23T00:41:06;4.90;;;4.50;;
6093;SDS011;19964;42.060;24.700;2022-11-23T00:43:34;8.47;;;4.90;;
6093;SDS011;19964;42.060;24.700;2022-11-23T00:46:04;6.20;;;4.70;;
6093;SDS011;19964;42.060;24.700;2022-11-23T00:48:33;4.50;;;4.20;;
6093;SDS011;19964;42.060;24.700;2022-11-23T00:51:00;5.20;;;4.70;;
6093;SDS011;19964;42.060;24.700;2022-11-23T00:53:27;4.70;;;4.30;;
6093;SDS011;19964;42.060;24.700;2022-11-23T00:55:56;5.43;;;4.63;;
6093;SDS011;19964;42.060;24.700;2022-11-23T00:58:24;5.63;;;5.00;;
6093;SDS011;19964;42.060;24.700;2022-11-23T01:00:58;6.10;;;4.90;;
6093;SDS011;19964;42.060;24.700;2022-11-23T01:03:27;6.93;;;4.57;;
6093;SDS011;19964;42.060;24.700;2022-11-23T01:05:54;6.07;;;5.10;;
6093;SDS011;19964;42.060;24.700;2022-11-23T01:08:21;7.07;;;5.37;;
6093;SDS011;19964;42.060;24.700;2022-11-23T01:10:48;7.77;;;5.33;;
6093;SDS011;19964;42.060;24.700;2022-11-23T01:13:16;9.13;;;5.07;;
6093;SDS011;19964;42.060;24.700;2022-11-23T01:15:47;8.73;;;5.70;;
6093;SDS011;19964;42.060;24.700;2022-11-23T01:18:15;11.37;;;5.20;;
6093;SDS011;19964;42.060;24.700;2022-11-23T01:20:42;7.27;;;5.37;;
6093;SDS011;19964;42.060;24.700;2022-11-23T01:23:09;9.57;;;6.50;;
6093;SDS011;19964;42.060;24.700;2022-11-23T01:25:36;10.97;;;8.20;;
6093;SDS011;19964;42.060;24.700;2022-11-23T01:28:03;12.63;;;7.67;;
6093;SDS011;19964;42.060;24.700;2022-11-23T01:30:31;11.90;;;7.50;;
6093;SDS011;19964;42.060;24.700;2022-11-23T01:33:00;12.40;;;6.93;;
6093;SDS011;19964;42.060;24.700;2022-11-23T01:35:27;8.70;;;7.07;;
6093;SDS011;19964;42.060;24.700;2022-11-23T01:37:55;10.07;;;6.90;;
6093;SDS011;19964;42.060;24.700;2022-11-23T01:40:22;8.60;;;6.80;;
6093;SDS011;19964;42.060;24.700;2022-11-23T01:42:51;8.70;;;6.93;;
6093;SDS011;19964;42.060;24.700;2022-11-23T01:45:28;9.47;;;7.30;;
6093;SDS011;19964;42.060;24.700;2022-11-23T01:48:05;12.60;;;7.70;;
6093;SDS011;19964;42.060;24.700;2022-11-23T01:50:36;10.30;;;8.73;;
6093;SDS011;19964;42.060;24.700;2022-11-23T01:53:04;11.33;;;8.77;;
6093;SDS011;19964;42.060;24.700;2022-11-23T01:55:32;11.70;;;8.80;;
6093;SDS011;19964;42.060;24.700;2022-11-23T01:58:01;14.40;;;8.93;;
6093;SDS011;19964;42.060;24.700;2022-11-23T02:00:30;12.33;;;10.93;;
6093;SDS011;19964;42.060;24.700;2022-11-23T02:02:58;11.40;;;10.03;;
6093;SDS011;19964;42.060;24.700;2022-11-23T02:05:27;11.73;;;9.20;;
6093;SDS011;19964;42.060;24.700;2022-11-23T02:07:58;12.27;;;8.97;;
6093;SDS011;19964;42.060;24.700;2022-11-23T02:10:27;11.67;;;9.57;;
6093;SDS011;19964;42.060;24.700;2022-11-23T02:12:57;13.40;;;9.57;;
6093;SDS011;19964;42.060;24.700;2022-11-23T02:15:27;15.03;;;10.30;;
6093;SDS011;19964;42.060;24.700;2022-11-23T02:17:54;14.53;;;11.40;;
6093;SDS011;19964;42.060;24.700;2022-11-23T02:20:23;13.93;;;10.47;;
6093;SDS011;19964;42.060;24.700;2022-11-23T02:22:53;10.73;;;9.50;;
6093;SDS011;19964;42.060;24.700;2022-11-23T02:25:29;11.30;;;8.63;;
6093;SDS011;19964;42.060;24.700;2022-11-23T02:28:05;10.90;;;8.93;;
6093;SDS011;19964;42.060;24.700;2022-11-23T02:30:33;13.67;;;9.63;;
6093;SDS011;19964;42.060;24.700;2022-11-23T02:33:02;12.73;;;8.70;;
6093;SDS011;19964;42.060;24.700;2022-11-23T02:35:30;10.40;;;7.43;;
6093;SDS011;19964;42.060;24.700;2022-11-23T02:37:58;10.70;;;7.60;;
6093;SDS011;19964;42.060;24.700;2022-11-23T02:40:26;11.40;;;7.23;;
6093;SDS011;19964;42.060;24.700;2022-11-23T02:42:56;9.57;;;8.00;;
6093;SDS011;19964;42.060;24.700;2022-11-23T02:45:27;9.80;;;7.67;;
6093;SDS011;19964;42.060;24.700;2022-11-23T02:48:01;10.60;;;8.00;;
6093;SDS011;19964;42.060;24.700;2022-11-23T02:50:28;8.30;;;7.53;;
6093;SDS011;19964;42.060;24.700;2022-11-23T02:52:55;8.60;;;7.77;;
6093;SDS011;19964;42.060;24.700;2022-11-23T02:55:22;11.70;;;7.73;;
6093;SDS011;19964;42.060;24.700;2022-11-23T02:57:49;8.43;;;7.63;;
6093;SDS011;19964;42.060;24.700;2022-11-23T03:00:16;12.17;;;8.03;;
6093;SDS011;19964;42.060;24.700;2022-11-23T03:02:45;11.57;;;8.20;;
6093;SDS011;19964;42.060;24.700;2022-11-23T03:05:12;11.97;;;8.37;;
6093;SDS011;19964;42.060;24.700;2022-11-23T03:07:39;9.73;;;8.73;;
6093;SDS011;19964;42.060;24.700;2022-11-23T03:10:06;17.63;;;11.57;;
6093;SDS011;19964;42.060;24.700;2022-11-23T03:12:34;15.90;;;10.93;;
6093;SDS011;19964;42.060;24.700;2022-11-23T03:15:01;12.57;;;9.00;;
6093;SDS011;19964;42.060;24.700;2022-11-23T03:17:29;11.23;;;8.50;;
6093;SDS011;19964;42.060;24.700;2022-11-23T03:19:57;11.00;;;8.17;;
6093;SDS011;19964;42.060;24.700;2022-11-23T03:22:24;9.60;;;7.97;;
6093;SDS011;19964;42.060;24.700;2022-11-23T03:24:51;9.63;;;7.57;;
6093;SDS011;19964;42.060;24.700;2022-11-23T03:27:18;12.27;;;9.53;;
6093;SDS011;19964;42.060;24.700;2022-11-23T03:29:45;13.37;;;8.27;;
6093;SDS011;19964;42.060;24.700;2022-11-23T03:32:12;9.57;;;8.57;;
6093;SDS011;19964;42.060;24.700;2022-11-23T03:34:39;11.53;;;8.30;;
6093;SDS011;19964;42.060;24.700;2022-11-23T03:37:08;12.37;;;8.20;;
6093;SDS011;19964;42.060;24.700;2022-11-23T03:39:35;12.33;;;9.07;;
6093;SDS011;19964;42.060;24.700;2022-11-23T03:42:01;10.53;;;9.13;;
6093;SDS011;19964;42.060;24.700;2022-11-23T03:44:29;14.90;;;9.07;;
6093;SDS011;19964;42.060;24.700;2022-11-23T03:46:55;10.17;;;8.27;;
6093;SDS011;19964;42.060;24.700;2022-11-23T03:49:23;12.57;;;9.63;;
6093;SDS011;19964;42.060;24.700;2022-11-23T03:51:50;12.77;;;9.73;;
6093;SDS011;19964;42.060;24.700;2022-11-23T03:54:18;14.77;;;10.20;;
6093;SDS011;19964;42.060;24.700;2022-11-23T03:56:45;16.77;;;8.90;;
6093;SDS011;19964;42.060;24.700;2022-11-23T03:59:12;13.13;;;8.60;;
6093;SDS011;19964;42.060;24.700;2022-11-23T04:01:39;9.60;;;8.40;;
6093;SDS011;19964;42.060;24.700;2022-11-23T04:04:06;14.33;;;9.87;;
6093;SDS011;19964;42.060;24.700;2022-11-23T04:06:33;10.10;;;8.47;;
6093;SDS011;19964;42.060;24.700;2022-11-23T04:08:59;12.83;;;10.03;;
6093;SDS011;19964;42.060;24.700;2022-11-23T04:11:28;12.77;;;8.80;;
6093;SDS011;19964;42.060;24.700;2022-11-23T04:13:54;13.03;;;9.33;;
6093;SDS011;19964;42.060;24.700;2022-11-23T04:16:21;12.73;;;8.97;;
6093;SDS011;19964;42.060;24.700;2022-11-23T04:18:48;13.73;;;9.17;;
6093;SDS011;19964;42.060;24.700;2022-11-23T04:21:15;10.93;;;9.30;;
6093;SDS011;19964;42.060;24.700;2022-11-23T04:23:42;13.73;;;9.50;;
6093;SDS011;19964;42.060;24.700;2022-11-23T04:26:09;12.07;;;10.07;;
6093;SDS011;19964;42.060;24.700;2022-11-23T04:28:37;12.27;;;9.07;;
6093;SDS011;19964;42.060;24.700;2022-11-23T04:31:04;12.07;;;9.37;;
6093;SDS011;19964;42.060;24.700;2022-11-23T04:33:31;14.50;;;9.30;;
6093;SDS011;19964;42.060;24.700;2022-11-23T04:35:58;11.23;;;9.30;;
6093;SDS011;19964;42.060;24.700;2022-11-23T04:38:25;15.97;;;10.00;;
6093;SDS011;19964;42.060;24.700;2022-11-23T04:40:52;13.87;;;9.70;;
6093;SDS011;19964;42.060;24.700;2022-11-23T04:43:19;13.60;;;9.97;;
6093;SDS011;19964;42.060;24.700;2022-11-23T04:45:47;14.07;;;10.60;;
6093;SDS011;19964;42.060;24.700;2022-11-23T04:48:14;16.27;;;10.57;;
6093;SDS011;19964;42.060;24.700;2022-11-23T04:50:41;15.50;;;10.50;;
6093;SDS011;19964;42.060;24.700;2022-11-23T04:53:08;13.47;;;10.07;;
6093;SDS011;19964;42.060;24.700;2022-11-23T04:55:34;15.23;;;10.50;;
6093;SDS011;19964;42.060;24.700;2022-11-23T04:58:01;12.93;;;10.20;;
6093;SDS011;19964;42.060;24.700;2022-11-23T05:00:28;14.23;;;10.33;;
6093;SDS011;19964;42.060;24.700;2022-11-23T05:02:58;12.73;;;10.30;;
6093;SDS011;19964;42.060;24.700;2022-11-23T05:05:26;17.00;;;10.13;;
6093;SDS011;19964;42.060;24.700;2022-11-23T05:07:53;12.30;;;9.83;;
6093;SDS011;19964;42.060;24.700;2022-11-23T05:10:20;14.90;;;10.07;;
6093;SDS011;19964;42.060;24.700;2022-11-23T05:12:49;14.70;;;9.80;;
6093;SDS011;19964;42.060;24.700;2022-11-23T05:15:16;15.37;;;10.27;;
6093;SDS011;19964;42.060;24.700;2022-11-23T05:17:43;12.70;;;10.30;;
6093;SDS011;19964;42.060;24.700;2022-11-23T05:20:11;13.03;;;10.10;;
6093;SDS011;19964;42.060;24.700;2022-11-23T05:22:38;14.03;;;10.30;;
6093;SDS011;19964;42.060;24.700;2022-11-23T05:25:05;13.63;;;10.03;;
6093;SDS011;19964;42.060;24.700;2022-11-23T05:27:33;14.00;;;10.20;;
6093;SDS011;19964;42.060;24.700;2022-11-23T05:30:00;14.23;;;10.27;;
6093;SDS011;19964;42.060;24.700;2022-11-23T05:32:27;16.43;;;11.00;;
6093;SDS011;19964;42.060;24.700;2022-11-23T05:34:54;14.80;;;10.27;;
6093;SDS011;19964;42.060;24.700;2022-11-23T05:37:23;13.73;;;10.63;;
6093;SDS011;19964;42.060;24.700;2022-11-23T05:39:50;16.47;;;11.97;;
6093;SDS011;19964;42.060;24.700;2022-11-23T05:42:17;16.07;;;12.07;;
6093;SDS011;19964;42.060;24.700;2022-11-23T05:44:44;16.60;;;12.37;;
6093;SDS011;19964;42.060;24.700;2022-11-23T05:47:11;19.60;;;13.10;;
6093;SDS011;19964;42.060;24.700;2022-11-23T05:49:37;22.67;;;13.40;;
6093;SDS011;19964;42.060;24.700;2022-11-23T05:52:04;19.40;;;14.03;;
6093;SDS011;19964;42.060;24.700;2022-11-23T05:54:33;22.07;;;15.50;;
6093;SDS011;19964;42.060;24.700;2022-11-23T05:56:59;27.13;;;15.43;;
6093;SDS011;19964;42.060;24.700;2022-11-23T05:59:26;21.60;;;14.67;;
6093;SDS011;19964;42.060;24.700;2022-11-23T06:01:53;18.90;;;14.10;;
6093;SDS011;19964;42.060;24.700;2022-11-23T06:04:20;17.80;;;13.50;;
6093;SDS011;19964;42.060;24.700;2022-11-23T06:06:47;17.10;;;12.07;;
6093;SDS011;19964;42.060;24.700;2022-11-23T06:09:14;19.60;;;12.67;;
6093;SDS011;19964;42.060;24.700;2022-11-23T06:11:42;16.67;;;12.87;;
6093;SDS011;19964;42.060;24.700;2022-11-23T06:14:09;21.43;;;13.07;;
6093;SDS011;19964;42.060;24.700;2022-11-23T06:16:36;15.50;;;11.70;;
6093;SDS011;19964;42.060;24.700;2022-11-23T06:19:03;16.97;;;11.90;;
6093;SDS011;19964;42.060;24.700;2022-11-23T06:21:30;17.00;;;11.97;;
6093;SDS011;19964;42.060;24.700;2022-11-23T06:23:57;19.33;;;14.17;;
6093;SDS011;19964;42.060;24.700;2022-11-23T06:26:24;21.33;;;15.80;;
6093;SDS011;19964;42.060;24.700;2022-11-23T06:28:52;21.40;;;15.13;;
6093;SDS011;19964;42.060;24.700;2022-11-23T06:31:19;19.60;;;14.20;;
6093;SDS011;19964;42.060;24.700;2022-11-23T06:33:46;17.77;;;14.13;;
6093;SDS011;19964;42.060;24.700;2022-11-23T06:36:12;19.63;;;15.60;;
6093;SDS011;19964;42.060;24.700;2022-11-23T06:38:40;19.23;;;15.33;;
6093;SDS011;19964;42.060;24.700;2022-11-23T06:41:07;17.87;;;13.00;;
6093;SDS011;19964;42.060;24.700;2022-11-23T06:43:33;19.97;;;13.53;;
6093;SDS011;19964;42.060;24.700;2022-11-23T06:46:03;19.60;;;15.03;;
6093;SDS011;19964;42.060;24.700;2022-11-23T06:48:31;25.87;;;16.17;;
6093;SDS011;19964;42.060;24.700;2022-11-23T06:50:58;52.03;;;28.67;;
6093;SDS011;19964;42.060;24.700;2022-11-23T06:53:25;17.07;;;12.50;;
6093;SDS011;19964;42.060;24.700;2022-11-23T06:55:56;17.23;;;13.23;;
6093;SDS011;19964;42.060;24.700;2022-11-23T06:58:24;17.87;;;12.53;;
6093;SDS011;19964;42.060;24.700;2022-11-23T07:00:51;12.87;;;11.57;;
6093;SDS011;19964;42.060;24.700;2022-11-23T07:03:20;13.70;;;11.23;;
6093;SDS011;19964;42.060;24.700;2022-11-23T07:05:48;14.33;;;11.67;;
6093;SDS011;19964;42.060;24.700;2022-11-23T07:08:15;15.23;;;12.40;;
6093;SDS011;19964;42.060;24.700;2022-11-23T07:10:42;16.63;;;10.70;;
6093;SDS011;19964;42.060;24.700;2022-11-23T07:13:09;34.40;;;26.43;;
6093;SDS011;19964;42.060;24.700;2022-11-23T07:15:37;26.83;;;19.13;;
6093;SDS011;19964;42.060;24.700;2022-11-23T07:18:04;15.33;;;12.30;;
6093;SDS011;19964;42.060;24.700;2022-11-23T07:20:33;17.83;;;14.80;;
6093;SDS011;19964;42.060;24.700;2022-11-23T07:23:00;19.53;;;15.50;;
6093;SDS011;19964;42.060;24.700;2022-11-23T07:25:27;19.70;;;14.93;;
6093;SDS011;19964;42.060;24.700;2022-11-23T07:27:55;19.87;;;15.00;;
6093;SDS011;19964;42.060;24.700;2022-11-23T07:30:22;18.20;;;14.33;;
6093;SDS011;19964;42.060;24.700;2022-11-23T07:32:49;20.17;;;15.03;;
6093;SDS011;19964;42.060;24.700;2022-11-23T07:35:19;16.97;;;14.30;;
6093;SDS011;19964;42.060;24.700;2022-11-23T07:37:47;22.57;;;14.87;;
6093;SDS011;19964;42.060;24.700;2022-11-23T07:40:15;18.60;;;14.97;;
6093;SDS011;19964;42.060;24.700;2022-11-23T07:42:42;18.47;;;16.30;;
6093;SDS011;19964;42.060;24.700;2022-11-23T07:45:09;21.13;;;17.97;;
6093;SDS011;19964;42.060;24.700;2022-11-23T07:47:37;20.67;;;16.63;;
6093;SDS011;19964;42.060;24.700;2022-11-23T07:50:04;21.00;;;16.20;;
6093;SDS011;19964;42.060;24.700;2022-11-23T07:52:32;18.87;;;15.40;;
6093;SDS011;19964;42.060;24.700;2022-11-23T07:55:02;23.00;;;15.50;;
6093;SDS011;19964;42.060;24.700;2022-11-23T07:57:30;21.10;;;14.67;;
6093;SDS011;19964;42.060;24.700;2022-11-23T07:59:56;20.10;;;13.40;;
6093;SDS011;19964;42.060;24.700;2022-11-23T08:02:24;19.80;;;14.03;;
6093;SDS011;19964;42.060;24.700;2022-11-23T08:04:51;22.37;;;15.77;;
6093;SDS011;19964;42.060;24.700;2022-11-23T08:07:17;23.83;;;14.73;;
6093;SDS011;19964;42.060;24.700;2022-11-23T08:09:44;19.13;;;15.23;;
6093;SDS011;19964;42.060;24.700;2022-11-23T08:12:12;21.97;;;14.37;;
6093;SDS011;19964;42.060;24.700;2022-11-23T08:14:39;19.70;;;13.97;;
6093;SDS011;19964;42.060;24.700;2022-11-23T08:17:06;17.57;;;14.57;;
6093;SDS011;19964;42.060;24.700;2022-11-23T08:19:33;21.73;;;14.40;;
6093;SDS011;19964;42.060;24.700;2022-11-23T08:21:59;18.43;;;14.37;;
6093;SDS011;19964;42.060;24.700;2022-11-23T08:24:26;19.63;;;14.07;;
6093;SDS011;19964;42.060;24.700;2022-11-23T08:26:53;21.13;;;13.57;;
6093;SDS011;19964;42.060;24.700;2022-11-23T08:29:22;20.00;;;14.77;;
6093;SDS011;19964;42.060;24.700;2022-11-23T08:31:49;19.47;;;14.17;;
6093;SDS011;19964;42.060;24.700;2022-11-23T08:34:16;21.60;;;14.43;;
6093;SDS011;19964;42.060;24.700;2022-11-23T08:36:44;23.27;;;14.17;;
6093;SDS011;19964;42.060;24.700;2022-11-23T08:39:12;22.00;;;14.43;;
6093;SDS011;19964;42.060;24.700;2022-11-23T08:41:40;22.93;;;15.50;;
6093;SDS011;19964;42.060;24.700;2022-11-23T08:44:07;24.23;;;16.33;;
6093;SDS011;19964;42.060;24.700;2022-11-23T08:46:37;23.77;;;17.20;;
6093;SDS011;19964;42.060;24.700;2022-11-23T08:49:04;27.17;;;18.17;;
6093;SDS011;19964;42.060;24.700;2022-11-23T08:51:32;23.10;;;16.07;;
6093;SDS011;19964;42.060;24.700;2022-11-23T08:53:59;24.80;;;16.13;;
6093;SDS011;19964;42.060;24.700;2022-11-23T08:56:26;24.00;;;15.63;;
6093;SDS011;19964;42.060;24.700;2022-11-23T08:58:53;23.10;;;15.27;;
6093;SDS011;19964;42.060;24.700;2022-11-23T09:01:20;23.43;;;15.67;;
6093;SDS011;19964;42.060;24.700;2022-11-23T09:03:48;20.67;;;15.23;;
6093;SDS011;19964;42.060;24.700;2022-11-23T09:06:15;21.17;;;14.60;;
6093;SDS011;19964;42.060;24.700;2022-11-23T09:08:41;20.70;;;14.20;;
6093;SDS011;19964;42.060;24.700;2022-11-23T09:11:09;21.40;;;15.87;;
6093;SDS011;19964;42.060;24.700;2022-11-23T09:13:38;22.57;;;14.97;;
6093;SDS011;19964;42.060;24.700;2022-11-23T09:16:05;16.50;;;12.93;;
6093;SDS011;19964;42.060;24.700;2022-11-23T09:18:32;17.73;;;13.53;;
6093;SDS011;19964;42.060;24.700;2022-11-23T09:21:02;21.13;;;14.60;;
6093;SDS011;19964;42.060;24.700;2022-11-23T09:23:30;21.90;;;14.33;;
6093;SDS011;19964;42.060;24.700;2022-11-23T09:26:00;19.70;;;14.30;;
6093;SDS011;19964;42.060;24.700;2022-11-23T09:28:28;19.80;;;14.57;;
6093;SDS011;19964;42.060;24.700;2022-11-23T09:30:56;27.50;;;18.67;;
6093;SDS011;19964;42.060;24.700;2022-11-23T09:33:23;19.43;;;13.70;;
6093;SDS011;19964;42.060;24.700;2022-11-23T09:35:57;45.80;;;23.17;;
6093;SDS011;19964;42.060;24.700;2022-11-23T09:38:26;21.00;;;15.50;;
6093;SDS011;19964;42.060;24.700;2022-11-23T09:40:56;46.43;;;28.30;;
6093;SDS011;19964;42.060;24.700;2022-11-23T09:43:37;29.37;;;21.47;;
6093;SDS011;19964;42.060;24.700;2022-11-23T09:46:10;20.17;;;15.77;;
6093;SDS011;19964;42.060;24.700;2022-11-23T09:48:50;17.53;;;13.47;;
6093;SDS011;19964;42.060;24.700;2022-11-23T09:51:34;20.13;;;13.47;;
6093;SDS011;19964;42.060;24.700;2022-11-23T09:54:08;16.60;;;13.97;;
6093;SDS011;19964;42.060;24.700;2022-11-23T09:56:49;16.73;;;13.27;;
6093;SDS011;19964;42.060;24.700;2022-11-23T09:59:20;16.77;;;12.90;;
6093;SDS011;19964;42.060;24.700;2022-11-23T10:01:57;17.40;;;14.23;;
6093;SDS011;19964;42.060;24.700;2022-11-23T10:04:25;15.97;;;14.00;;
6093;SDS011;19964;42.060;24.700;2022-11-23T10:07:00;20.03;;;14.83;;
6093;SDS011;19964;42.060;24.700;2022-11-23T10:09:37;21.17;;;15.30;;
6093;SDS011;19964;42.060;24.700;2022-11-23T10:12:16;18.47;;;15.00;;
6093;SDS011;19964;42.060;24.700;2022-11-23T10:15:00;19.30;;;15.00;;
6093;SDS011;19964;42.060;24.700;2022-11-23T10:20:27;22.17;;;15.70;;
6093;SDS011;19964;42.060;24.700;2022-11-23T10:23:07;18.97;;;15.47;;
6093;SDS011;19964;42.060;24.700;2022-11-23T10:25:44;21.10;;;16.60;;
6093;SDS011;19964;42.060;24.700;2022-11-23T10:28:14;18.77;;;14.37;;
6093;SDS011;19964;42.060;24.700;2022-11-23T10:30:44;18.57;;;15.33;;
6093;SDS011;19964;42.060;24.700;2022-11-23T10:33:20;22.50;;;14.73;;
6093;SDS011;19964;42.060;24.700;2022-11-23T10:35:56;20.77;;;15.37;;
6093;SDS011;19964;42.060;24.700;2022-11-23T10:38:24;19.40;;;13.93;;
6093;SDS011;19964;42.060;24.700;2022-11-23T10:40:57;22.33;;;14.87;;
6093;SDS011;19964;42.060;24.700;2022-11-23T10:43:31;18.67;;;15.13;;
6093;SDS011;19964;42.060;24.700;2022-11-23T10:46:22;18.10;;;13.87;;
6093;SDS011;19964;42.060;24.700;2022-11-23T10:48:52;18.60;;;14.43;;
6093;SDS011;19964;42.060;24.700;2022-11-23T10:51:22;19.00;;;13.40;;
6093;SDS011;19964;42.060;24.700;2022-11-23T10:53:53;19.93;;;14.00;;
6093;SDS011;19964;42.060;24.700;2022-11-23T10:56:24;18.87;;;14.53;;
6093;SDS011;19964;42.060;24.700;2022-11-23T10:58:52;22.43;;;14.73;;
6093;SDS011;19964;42.060;24.700;2022-11-23T11:01:19;19.00;;;13.97;;
6093;SDS011;19964;42.060;24.700;2022-11-23T11:03:49;21.77;;;14.40;;
6093;SDS011;19964;42.060;24.700;2022-11-23T11:06:23;18.83;;;13.57;;
6093;SDS011;19964;42.060;24.700;2022-11-23T11:08:52;19.03;;;13.23;;
6093;SDS011;19964;42.060;24.700;2022-11-23T11:11:21;20.37;;;14.13;;
6093;SDS011;19964;42.060;24.700;2022-11-23T11:14:00;19.47;;;15.30;;
6093;SDS011;19964;42.060;24.700;2022-11-23T11:16:32;28.43;;;18.73;;
6093;SDS011;19964;42.060;24.700;2022-11-23T11:19:00;22.40;;;15.70;;
6093;SDS011;19964;42.060;24.700;2022-11-23T11:21:48;21.63;;;14.50;;
6093;SDS011;19964;42.060;24.700;2022-11-23T11:24:15;16.73;;;13.60;;
6093;SDS011;19964;42.060;24.700;2022-11-23T11:26:47;19.23;;;14.63;;
6093;SDS011;19964;42.060;24.700;2022-11-23T11:29:23;17.17;;;13.97;;
6093;SDS011;19964;42.060;24.700;2022-11-23T11:31:58;20.37;;;14.00;;
6093;SDS011;19964;42.060;24.700;2022-11-23T11:34:30;19.43;;;14.47;;
6093;SDS011;19964;42.060;24.700;2022-11-23T11:37:02;21.03;;;15.00;;
6093;SDS011;19964;42.060;24.700;2022-11-23T11:39:38;20.23;;;14.17;;
6093;SDS011;19964;42.060;24.700;2022-11-23T11:42:15;20.30;;;14.07;;
6093;SDS011;19964;42.060;24.700;2022-11-23T11:44:45;17.83;;;14.23;;
6093;SDS011;19964;42.060;24.700;2022-11-23T11:47:20;19.83;;;13.77;;
6093;SDS011;19964;42.060;24.700;2022-11-23T11:49:54;19.60;;;13.63;;
6093;SDS011;19964;42.060;24.700;2022-11-23T11:52:25;20.70;;;14.33;;
6093;SDS011;19964;42.060;24.700;2022-11-23T11:54:56;18.57;;;14.17;;
6093;SDS011;19964;42.060;24.700;2022-11-23T11:57:32;19.67;;;14.40;;
6093;SDS011;19964;42.060;24.700;2022-11-23T12:00:04;20.70;;;14.83;;
6093;SDS011;19964;42.060;24.700;2022-11-23T12:02:38;17.87;;;14.40;;
6093;SDS011;19964;42.060;24.700;2022-11-23T12:05:16;17.03;;;13.67;;
6093;SDS011;19964;42.060;24.700;2022-11-23T12:07:51;17.70;;;14.17;;
6093;SDS011;19964;42.060;24.700;2022-11-23T12:10:27;20.57;;;14.43;;
6093;SDS011;19964;42.060;24.700;2022-11-23T12:12:59;19.07;;;14.17;;
6093;SDS011;19964;42.060;24.700;2022-11-23T12:15:28;21.10;;;15.20;;
6093;SDS011;19964;42.060;24.700;2022-11-23T12:21:11;19.97;;;15.23;;
6093;SDS011;19964;42.060;24.700;2022-11-23T12:23:54;21.70;;;16.33;;
6093;SDS011;19964;42.060;24.700;2022-11-23T12:26:30;27.03;;;16.80;;
6093;SDS011;19964;42.060;24.700;2022-11-23T12:32:08;26.73;;;18.57;;
6093;SDS011;19964;42.060;24.700;2022-11-23T12:34:50;25.00;;;17.70;;
6093;SDS011;19964;42.060;24.700;2022-11-23T12:37:42;21.40;;;17.70;;
6093;SDS011;19964;42.060;24.700;2022-11-23T12:40:30;25.37;;;18.30;;
6093;SDS011;19964;42.060;24.700;2022-11-23T12:43:10;24.27;;;19.07;;
6093;SDS011;19964;42.060;24.700;2022-11-23T12:45:45;31.83;;;19.60;;
6093;SDS011;19964;42.060;24.700;2022-11-23T12:48:24;27.90;;;19.07;;
6093;SDS011;19964;42.060;24.700;2022-11-23T12:51:03;26.03;;;19.77;;
6093;SDS011;19964;42.060;24.700;2022-11-23T12:53:44;32.27;;;20.17;;
6093;SDS011;19964;42.060;24.700;2022-11-23T12:56:21;25.80;;;18.40;;
6093;SDS011;19964;42.060;24.700;2022-11-23T12:59:02;27.47;;;18.30;;
6093;SDS011;19964;42.060;24.700;2022-11-23T13:01:32;24.97;;;17.73;;
6093;SDS011;19964;42.060;24.700;2022-11-23T13:04:12;24.93;;;17.77;;
6093;SDS011;19964;42.060;24.700;2022-11-23T13:07:06;23.53;;;17.77;;
6093;SDS011;19964;42.060;24.700;2022-11-23T13:10:05;24.70;;;18.07;;
6093;SDS011;19964;42.060;24.700;2022-11-23T13:15:55;23.63;;;18.40;;
6093;SDS011;19964;42.060;24.700;2022-11-23T13:19:03;23.63;;;17.37;;
6093;SDS011;19964;42.060;24.700;2022-11-23T13:21:41;25.47;;;17.00;;
6093;SDS011;19964;42.060;24.700;2022-11-23T13:24:23;27.37;;;18.33;;
6093;SDS011;19964;42.060;24.700;2022-11-23T13:29:56;21.83;;;16.33;;
6093;SDS011;19964;42.060;24.700;2022-11-23T13:32:41;20.53;;;16.13;;
6093;SDS011;19964;42.060;24.700;2022-11-23T13:38:23;26.10;;;17.20;;
6093;SDS011;19964;42.060;24.700;2022-11-23T13:40:52;26.00;;;18.40;;
6093;SDS011;19964;42.060;24.700;2022-11-23T13:43:20;23.47;;;17.27;;
6093;SDS011;19964;42.060;24.700;2022-11-23T13:48:46;25.27;;;17.23;;
6093;SDS011;19964;42.060;24.700;2022-11-23T13:51:22;25.03;;;17.70;;
6093;SDS011;19964;42.060;24.700;2022-11-23T13:53:51;23.53;;;17.83;;
6093;SDS011;19964;42.060;24.700;2022-11-23T13:56:28;24.83;;;17.23;;
6093;SDS011;19964;42.060;24.700;2022-11-23T13:58:58;22.83;;;17.67;;
6093;SDS011;19964;42.060;24.700;2022-11-23T14:02:00;20.10;;;16.33;;
6093;SDS011;19964;42.060;24.700;2022-11-23T14:08:00;22.37;;;16.00;;
6093;SDS011;19964;42.060;24.700;2022-11-23T14:10:29;18.70;;;14.93;;
6093;SDS011;19964;42.060;24.700;2022-11-23T14:12:59;22.80;;;15.30;;
6093;SDS011;19964;42.060;24.700;2022-11-23T14:15:30;18.97;;;14.63;;
6093;SDS011;19964;42.060;24.700;2022-11-23T14:18:06;21.37;;;15.23;;
6093;SDS011;19964;42.060;24.700;2022-11-23T14:20:51;26.67;;;16.47;;
6093;SDS011;19964;42.060;24.700;2022-11-23T14:26:39;17.77;;;13.60;;
6093;SDS011;19964;42.060;24.700;2022-11-23T14:32:23;22.93;;;13.90;;
6093;SDS011;19964;42.060;24.700;2022-11-23T14:35:02;18.60;;;14.27;;
6093;SDS011;19964;42.060;24.700;2022-11-23T14:37:46;18.20;;;14.47;;
6093;SDS011;19964;42.060;24.700;2022-11-23T14:40:36;22.30;;;15.20;;
6093;SDS011;19964;42.060;24.700;2022-11-23T14:43:19;25.23;;;15.00;;
6093;SDS011;19964;42.060;24.700;2022-11-23T14:45:46;26.13;;;15.47;;
6093;SDS011;19964;42.060;24.700;2022-11-23T14:48:20;17.80;;;14.40;;
6093;SDS011;19964;42.060;24.700;2022-11-23T14:50:52;19.67;;;14.63;;
6093;SDS011;19964;42.060;24.700;2022-11-23T14:53:21;19.97;;;14.60;;
6093;SDS011;19964;42.060;24.700;2022-11-23T14:55:51;18.40;;;14.63;;
6093;SDS011;19964;42.060;24.700;2022-11-23T14:58:17;22.67;;;15.53;;
6093;SDS011;19964;42.060;24.700;2022-11-23T15:00:49;19.23;;;14.90;;
6093;SDS011;19964;42.060;24.700;2022-11-23T15:03:18;22.00;;;16.97;;
6093;SDS011;19964;42.060;24.700;2022-11-23T15:05:51;30.37;;;15.93;;
6093;SDS011;19964;42.060;24.700;2022-11-23T15:08:23;24.47;;;17.00;;
6093;SDS011;19964;42.060;24.700;2022-11-23T15:10:56;24.13;;;16.07;;
6093;SDS011;19964;42.060;24.700;2022-11-23T15:13:30;23.37;;;16.87;;
6093;SDS011;19964;42.060;24.700;2022-11-23T15:15:58;32.87;;;19.27;;